sensor_id;sensor_type;location;lat;lon;timestamp;temperature;humidity
23729;DHT22;12045;60.214;24.724;2022-12-10T00:01:59;-0.60;99.90
23729;DHT22;12045;60.214;24.724;2022-12-10T00:04:53;-0.30;99.90
23729;DHT22;12045;60.214;24.724;2022-12-10T00:10:43;0.00;99.90
23729;DHT22;12045;60.214;24.724;2022-12-10T00:13:48;0.10;99.90
23729;DHT22;12045;60.214;24.724;2022-12-10T00:16:44;0.20;99.90
23729;DHT22;12045;60.214;24.724;2022-12-10T00:27:19;0.40;99.90
23729;DHT22;12045;60.214;24.724;2022-12-10T00:30:49;0.50;99.90
23729;DHT22;12045;60.214;24.724;2022-12-10T00:38:05;0.60;99.90
23729;DHT22;12045;60.214;24.724;2022-12-10T00:41:37;0.40;99.90
23729;DHT22;12045;60.214;24.724;2022-12-10T00:45:27;0.50;99.90
23729;DHT22;12045;60.214;24.724;2022-12-10T00:49:05;0.50;99.90
23729;DHT22;12045;60.214;24.724;2022-12-10T00:52:38;0.70;99.90
23729;DHT22;12045;60.214;24.724;2022-12-10T00:59:41;0.50;99.90
23729;DHT22;12045;60.214;24.724;2022-12-10T01:06:20;0.60;99.90
23729;DHT22;12045;60.214;24.724;2022-12-10T01:08:49;0.60;99.90
23729;DHT22;12045;60.214;24.724;2022-12-10T01:11:18;0.60;99.90
23729;DHT22;12045;60.214;24.724;2022-12-10T01:13:47;0.30;99.90
23729;DHT22;12045;60.214;24.724;2022-12-10T01:16:18;2.10;99.90
23729;DHT22;12045;60.214;24.724;2022-12-10T01:18:46;2.30;99.90
23729;DHT22;12045;60.214;24.724;2022-12-10T01:21:17;1.90;99.90
23729;DHT22;12045;60.214;24.724;2022-12-10T01:23:48;1.30;99.90
23729;DHT22;12045;60.214;24.724;2022-12-10T01:26:18;2.60;99.90
23729;DHT22;12045;60.214;24.724;2022-12-10T01:28:46;2.60;99.90
23729;DHT22;12045;60.214;24.724;2022-12-10T01:31:18;2.80;99.90
23729;DHT22;12045;60.214;24.724;2022-12-10T01:33:46;2.90;99.90
23729;DHT22;12045;60.214;24.724;2022-12-10T01:36:50;2.80;99.90
23729;DHT22;12045;60.214;24.724;2022-12-10T01:39:13;0.70;99.90
23729;DHT22;12045;60.214;24.724;2022-12-10T01:46:49;0.70;99.90
23729;DHT22;12045;60.214;24.724;2022-12-10T01:49:20;2.40;99.90
23729;DHT22;12045;60.214;24.724;2022-12-10T01:51:50;1.20;99.90
23729;DHT22;12045;60.214;24.724;2022-12-10T01:54:21;2.60;99.90
23729;DHT22;12045;60.214;24.724;2022-12-10T01:56:58;1.00;99.90
23729;DHT22;12045;60.214;24.724;2022-12-10T01:59:26;2.30;99.90
23729;DHT22;12045;60.214;24.724;2022-12-10T02:12:46;1.80;99.90
23729;DHT22;12045;60.214;24.724;2022-12-10T02:15:18;1.00;99.90
23729;DHT22;12045;60.214;24.724;2022-12-10T02:17:57;2.90;99.90
23729;DHT22;12045;60.214;24.724;2022-12-10T02:23:05;1.90;99.90
23729;DHT22;12045;60.214;24.724;2022-12-10T02:26:20;2.70;99.90
23729;DHT22;12045;60.214;24.724;2022-12-10T02:31:37;1.30;99.90
23729;DHT22;12045;60.214;24.724;2022-12-10T02:34:08;2.30;99.90
23729;DHT22;12045;60.214;24.724;2022-12-10T02:36:38;3.20;99.90
23729;DHT22;12045;60.214;24.724;2022-12-10T02:39:11;1.10;99.90
23729;DHT22;12045;60.214;24.724;2022-12-10T02:41:42;3.10;99.90
23729;DHT22;12045;60.214;24.724;2022-12-10T02:44:12;2.40;99.90
23729;DHT22;12045;60.214;24.724;2022-12-10T02:46:43;3.00;99.90
23729;DHT22;12045;60.214;24.724;2022-12-10T02:49:14;2.40;99.90
23729;DHT22;12045;60.214;24.724;2022-12-10T02:51:43;1.80;99.90
23729;DHT22;12045;60.214;24.724;2022-12-10T02:54:34;1.70;99.90
23729;DHT22;12045;60.214;24.724;2022-12-10T03:00:09;1.00;99.90
23729;DHT22;12045;60.214;24.724;2022-12-10T03:05:29;2.90;99.90
23729;DHT22;12045;60.214;24.724;2022-12-10T03:13:12;1.00;99.90
23729;DHT22;12045;60.214;24.724;2022-12-10T03:15:41;2.80;99.90
23729;DHT22;12045;60.214;24.724;2022-12-10T03:18:11;3.10;99.90
23729;DHT22;12045;60.214;24.724;2022-12-10T03:20:43;3.20;99.90
23729;DHT22;12045;60.214;24.724;2022-12-10T03:23:15;2.80;99.90
23729;DHT22;12045;60.214;24.724;2022-12-10T03:25:45;2.60;99.90
23729;DHT22;12045;60.214;24.724;2022-12-10T03:28:14;1.00;99.90
23729;DHT22;12045;60.214;24.724;2022-12-10T03:30:43;3.20;99.90
23729;DHT22;12045;60.214;24.724;2022-12-10T03:33:11;1.90;99.90
23729;DHT22;12045;60.214;24.724;2022-12-10T03:35:40;1.20;99.90
23729;DHT22;12045;60.214;24.724;2022-12-10T03:38:08;3.40;99.90
23729;DHT22;12045;60.214;24.724;2022-12-10T03:40:36;2.90;99.90
23729;DHT22;12045;60.214;24.724;2022-12-10T03:43:04;2.90;99.90
23729;DHT22;12045;60.214;24.724;2022-12-10T03:45:31;1.60;99.90
23729;DHT22;12045;60.214;24.724;2022-12-10T03:47:59;1.40;99.90
23729;DHT22;12045;60.214;24.724;2022-12-10T03:50:26;2.80;99.90
23729;DHT22;12045;60.214;24.724;2022-12-10T03:52:54;0.60;99.90
23729;DHT22;12045;60.214;24.724;2022-12-10T03:55:21;1.20;99.90
23729;DHT22;12045;60.214;24.724;2022-12-10T03:57:48;1.20;99.90
23729;DHT22;12045;60.214;24.724;2022-12-10T04:00:16;1.30;99.90
23729;DHT22;12045;60.214;24.724;2022-12-10T04:02:44;1.10;99.90
23729;DHT22;12045;60.214;24.724;2022-12-10T04:05:11;2.20;99.90
23729;DHT22;12045;60.214;24.724;2022-12-10T04:07:39;3.00;99.90
23729;DHT22;12045;60.214;24.724;2022-12-10T04:10:07;2.00;99.90
23729;DHT22;12045;60.214;24.724;2022-12-10T04:12:34;0.70;99.90
23729;DHT22;12045;60.214;24.724;2022-12-10T04:15:02;2.30;99.90
23729;DHT22;12045;60.214;24.724;2022-12-10T04:17:48;1.20;99.90
23729;DHT22;12045;60.214;24.724;2022-12-10T04:20:15;2.90;99.90
23729;DHT22;12045;60.214;24.724;2022-12-10T04:23:01;1.30;99.90
23729;DHT22;12045;60.214;24.724;2022-12-10T04:25:47;3.00;99.90
23729;DHT22;12045;60.214;24.724;2022-12-10T04:28:33;2.10;99.90
23729;DHT22;12045;60.214;24.724;2022-12-10T04:31:01;1.50;99.90
23729;DHT22;12045;60.214;24.724;2022-12-10T04:33:28;2.80;99.90
23729;DHT22;12045;60.214;24.724;2022-12-10T04:35:56;2.60;99.90
23729;DHT22;12045;60.214;24.724;2022-12-10T04:38:23;2.60;99.90
23729;DHT22;12045;60.214;24.724;2022-12-10T04:40:51;2.50;99.90
23729;DHT22;12045;60.214;24.724;2022-12-10T04:43:18;3.10;99.90
23729;DHT22;12045;60.214;24.724;2022-12-10T04:45:45;2.30;99.90
23729;DHT22;12045;60.214;24.724;2022-12-10T04:48:13;0.10;99.90
23729;DHT22;12045;60.214;24.724;2022-12-10T04:50:40;1.20;99.90
23729;DHT22;12045;60.214;24.724;2022-12-10T04:53:08;1.10;99.90
23729;DHT22;12045;60.214;24.724;2022-12-10T04:55:35;2.90;99.90
23729;DHT22;12045;60.214;24.724;2022-12-10T04:58:03;1.30;99.90
23729;DHT22;12045;60.214;24.724;2022-12-10T05:00:30;0.90;99.90
23729;DHT22;12045;60.214;24.724;2022-12-10T05:02:57;1.00;99.90
23729;DHT22;12045;60.214;24.724;2022-12-10T05:05:25;0.90;99.90
23729;DHT22;12045;60.214;24.724;2022-12-10T05:07:53;0.80;99.90
23729;DHT22;12045;60.214;24.724;2022-12-10T05:10:20;1.40;99.90
23729;DHT22;12045;60.214;24.724;2022-12-10T05:12:48;1.30;99.90
23729;DHT22;12045;60.214;24.724;2022-12-10T05:15:16;1.40;99.90
23729;DHT22;12045;60.214;24.724;2022-12-10T05:17:43;1.20;99.90
23729;DHT22;12045;60.214;24.724;2022-12-10T05:20:11;1.10;99.90
23729;DHT22;12045;60.214;24.724;2022-12-10T05:22:38;1.10;99.90
23729;DHT22;12045;60.214;24.724;2022-12-10T05:25:24;1.10;99.90
23729;DHT22;12045;60.214;24.724;2022-12-10T05:27:51;3.00;99.90
23729;DHT22;12045;60.214;24.724;2022-12-10T05:30:19;2.30;99.90
23729;DHT22;12045;60.214;24.724;2022-12-10T05:32:46;1.30;99.90
23729;DHT22;12045;60.214;24.724;2022-12-10T05:35:14;1.30;99.90
23729;DHT22;12045;60.214;24.724;2022-12-10T05:37:44;1.30;99.90
23729;DHT22;12045;60.214;24.724;2022-12-10T05:40:12;1.20;99.90
23729;DHT22;12045;60.214;24.724;2022-12-10T05:42:39;0.90;99.90
23729;DHT22;12045;60.214;24.724;2022-12-10T05:45:07;1.10;99.90
23729;DHT22;12045;60.214;24.724;2022-12-10T05:47:34;1.30;99.90
23729;DHT22;12045;60.214;24.724;2022-12-10T05:50:02;1.30;99.90
23729;DHT22;12045;60.214;24.724;2022-12-10T05:52:30;1.30;99.90
23729;DHT22;12045;60.214;24.724;2022-12-10T05:54:57;2.80;99.90
23729;DHT22;12045;60.214;24.724;2022-12-10T05:57:25;2.40;99.90
23729;DHT22;12045;60.214;24.724;2022-12-10T05:59:52;1.30;99.90
23729;DHT22;12045;60.214;24.724;2022-12-10T06:02:19;1.50;99.90
23729;DHT22;12045;60.214;24.724;2022-12-10T06:04:47;3.30;99.90
23729;DHT22;12045;60.214;24.724;2022-12-10T06:07:14;3.30;99.90
23729;DHT22;12045;60.214;24.724;2022-12-10T06:09:42;1.50;99.90
23729;DHT22;12045;60.214;24.724;2022-12-10T06:12:09;1.00;99.90
23729;DHT22;12045;60.214;24.724;2022-12-10T06:14:37;1.30;99.90
23729;DHT22;12045;60.214;24.724;2022-12-10T06:17:04;1.40;99.90
23729;DHT22;12045;60.214;24.724;2022-12-10T06:19:32;1.40;99.90
23729;DHT22;12045;60.214;24.724;2022-12-10T06:21:59;1.40;99.90
23729;DHT22;12045;60.214;24.724;2022-12-10T06:24:27;1.20;99.90
23729;DHT22;12045;60.214;24.724;2022-12-10T06:26:55;2.90;99.90
23729;DHT22;12045;60.214;24.724;2022-12-10T06:29:23;2.50;99.90
23729;DHT22;12045;60.214;24.724;2022-12-10T06:31:50;1.40;99.90
23729;DHT22;12045;60.214;24.724;2022-12-10T06:34:17;2.00;99.90
23729;DHT22;12045;60.214;24.724;2022-12-10T06:36:45;1.50;99.90
23729;DHT22;12045;60.214;24.724;2022-12-10T06:39:12;1.50;99.90
23729;DHT22;12045;60.214;24.724;2022-12-10T06:41:40;1.40;99.90
23729;DHT22;12045;60.214;24.724;2022-12-10T06:44:11;1.40;99.90
23729;DHT22;12045;60.214;24.724;2022-12-10T06:46:42;1.50;99.90
23729;DHT22;12045;60.214;24.724;2022-12-10T06:49:09;1.50;99.90
23729;DHT22;12045;60.214;24.724;2022-12-10T06:51:37;1.50;99.90
23729;DHT22;12045;60.214;24.724;2022-12-10T06:54:05;1.50;99.90
23729;DHT22;12045;60.214;24.724;2022-12-10T06:56:33;1.30;99.90
23729;DHT22;12045;60.214;24.724;2022-12-10T06:59:04;1.70;99.90
23729;DHT22;12045;60.214;24.724;2022-12-10T07:01:33;1.40;99.90
23729;DHT22;12045;60.214;24.724;2022-12-10T07:04:01;3.00;99.90
23729;DHT22;12045;60.214;24.724;2022-12-10T07:06:31;2.30;99.90
23729;DHT22;12045;60.214;24.724;2022-12-10T07:08:59;2.20;99.90
23729;DHT22;12045;60.214;24.724;2022-12-10T07:11:27;3.20;99.90
23729;DHT22;12045;60.214;24.724;2022-12-10T07:13:54;3.20;99.90
23729;DHT22;12045;60.214;24.724;2022-12-10T07:16:24;2.70;99.90
23729;DHT22;12045;60.214;24.724;2022-12-10T07:18:53;4.00;99.90
23729;DHT22;12045;60.214;24.724;2022-12-10T07:21:30;2.80;99.90
23729;DHT22;12045;60.214;24.724;2022-12-10T07:24:09;2.40;99.90
23729;DHT22;12045;60.214;24.724;2022-12-10T07:26:39;1.40;99.90
23729;DHT22;12045;60.214;24.724;2022-12-10T07:29:11;1.50;99.90
23729;DHT22;12045;60.214;24.724;2022-12-10T07:31:39;1.90;99.90
23729;DHT22;12045;60.214;24.724;2022-12-10T07:34:07;1.60;99.90
23729;DHT22;12045;60.214;24.724;2022-12-10T07:36:34;1.80;99.90
23729;DHT22;12045;60.214;24.724;2022-12-10T07:39:05;1.30;99.90
23729;DHT22;12045;60.214;24.724;2022-12-10T07:41:33;2.50;99.90
23729;DHT22;12045;60.214;24.724;2022-12-10T07:44:00;3.60;99.90
23729;DHT22;12045;60.214;24.724;2022-12-10T07:46:30;2.40;99.90
23729;DHT22;12045;60.214;24.724;2022-12-10T07:49:01;3.40;99.90
23729;DHT22;12045;60.214;24.724;2022-12-10T07:51:29;1.50;99.90
23729;DHT22;12045;60.214;24.724;2022-12-10T07:53:57;1.40;99.90
23729;DHT22;12045;60.214;24.724;2022-12-10T07:56:25;1.20;99.90
23729;DHT22;12045;60.214;24.724;2022-12-10T07:58:52;1.40;99.90
23729;DHT22;12045;60.214;24.724;2022-12-10T08:01:25;3.00;99.90
23729;DHT22;12045;60.214;24.724;2022-12-10T08:03:54;2.60;99.90
23729;DHT22;12045;60.214;24.724;2022-12-10T08:06:25;3.20;99.90
23729;DHT22;12045;60.214;24.724;2022-12-10T08:08:52;3.30;99.90
23729;DHT22;12045;60.214;24.724;2022-12-10T08:11:21;1.30;99.90
23729;DHT22;12045;60.214;24.724;2022-12-10T08:13:49;3.10;99.90
23729;DHT22;12045;60.214;24.724;2022-12-10T08:16:25;0.80;99.90
23729;DHT22;12045;60.214;24.724;2022-12-10T08:18:58;1.20;99.90
23729;DHT22;12045;60.214;24.724;2022-12-10T08:21:27;1.40;99.90
23729;DHT22;12045;60.214;24.724;2022-12-10T08:23:56;2.90;99.90
23729;DHT22;12045;60.214;24.724;2022-12-10T08:26:26;1.20;99.90
23729;DHT22;12045;60.214;24.724;2022-12-10T08:28:55;3.40;99.90
23729;DHT22;12045;60.214;24.724;2022-12-10T08:31:24;1.50;99.90
23729;DHT22;12045;60.214;24.724;2022-12-10T08:33:51;1.40;99.90
23729;DHT22;12045;60.214;24.724;2022-12-10T08:36:19;1.20;99.90
23729;DHT22;12045;60.214;24.724;2022-12-10T08:38:47;0.90;99.90
23729;DHT22;12045;60.214;24.724;2022-12-10T08:41:18;1.50;99.90
23729;DHT22;12045;60.214;24.724;2022-12-10T08:43:47;2.90;99.90
23729;DHT22;12045;60.214;24.724;2022-12-10T08:46:15;3.20;99.90
23729;DHT22;12045;60.214;24.724;2022-12-10T08:48:43;1.60;99.90
23729;DHT22;12045;60.214;24.724;2022-12-10T08:51:14;3.20;99.90
23729;DHT22;12045;60.214;24.724;2022-12-10T08:53:42;2.90;99.90
23729;DHT22;12045;60.214;24.724;2022-12-10T08:56:09;1.10;99.90
23729;DHT22;12045;60.214;24.724;2022-12-10T08:58:38;2.90;99.90
23729;DHT22;12045;60.214;24.724;2022-12-10T09:01:09;2.30;99.90
23729;DHT22;12045;60.214;24.724;2022-12-10T09:03:37;1.20;99.90
23729;DHT22;12045;60.214;24.724;2022-12-10T09:06:07;2.00;99.90
23729;DHT22;12045;60.214;24.724;2022-12-10T09:08:34;1.30;99.90
23729;DHT22;12045;60.214;24.724;2022-12-10T09:11:24;1.40;99.90
23729;DHT22;12045;60.214;24.724;2022-12-10T09:13:53;2.50;99.90
23729;DHT22;12045;60.214;24.724;2022-12-10T09:16:20;2.20;99.90
23729;DHT22;12045;60.214;24.724;2022-12-10T09:18:48;2.10;99.90
23729;DHT22;12045;60.214;24.724;2022-12-10T09:21:16;2.70;99.90
23729;DHT22;12045;60.214;24.724;2022-12-10T09:23:44;1.30;99.90
23729;DHT22;12045;60.214;24.724;2022-12-10T09:26:14;1.30;99.90
23729;DHT22;12045;60.214;24.724;2022-12-10T09:28:42;3.20;99.90
23729;DHT22;12045;60.214;24.724;2022-12-10T09:31:12;2.80;99.90
23729;DHT22;12045;60.214;24.724;2022-12-10T09:33:48;1.30;99.90
23729;DHT22;12045;60.214;24.724;2022-12-10T09:36:15;3.30;99.90
23729;DHT22;12045;60.214;24.724;2022-12-10T09:38:44;0.70;99.90
23729;DHT22;12045;60.214;24.724;2022-12-10T09:41:33;1.30;99.90
23729;DHT22;12045;60.214;24.724;2022-12-10T09:46:58;1.30;99.90
23729;DHT22;12045;60.214;24.724;2022-12-10T09:52:13;1.50;99.90
23729;DHT22;12045;60.214;24.724;2022-12-10T09:57:31;2.30;99.90
23729;DHT22;12045;60.214;24.724;2022-12-10T10:00:04;1.50;99.90
23729;DHT22;12045;60.214;24.724;2022-12-10T10:02:32;1.30;99.90
23729;DHT22;12045;60.214;24.724;2022-12-10T10:05:10;0.70;99.90
23729;DHT22;12045;60.214;24.724;2022-12-10T10:07:43;1.90;99.90
23729;DHT22;12045;60.214;24.724;2022-12-10T10:10:24;1.30;99.90
23729;DHT22;12045;60.214;24.724;2022-12-10T10:12:55;1.40;99.90
23729;DHT22;12045;60.214;24.724;2022-12-10T10:15:32;1.20;99.90
23729;DHT22;12045;60.214;24.724;2022-12-10T10:18:26;1.90;99.90
23729;DHT22;12045;60.214;24.724;2022-12-10T10:20:57;1.00;99.90
23729;DHT22;12045;60.214;24.724;2022-12-10T10:23:25;2.60;99.90
23729;DHT22;12045;60.214;24.724;2022-12-10T10:25:53;0.80;99.90
23729;DHT22;12045;60.214;24.724;2022-12-10T10:28:22;1.00;99.90
23729;DHT22;12045;60.214;24.724;2022-12-10T10:30:51;2.80;99.90
23729;DHT22;12045;60.214;24.724;2022-12-10T10:33:19;2.30;99.90
23729;DHT22;12045;60.214;24.724;2022-12-10T10:35:54;0.90;99.90
23729;DHT22;12045;60.214;24.724;2022-12-10T10:38:27;0.60;99.90
23729;DHT22;12045;60.214;24.724;2022-12-10T10:41:03;2.80;99.90
23729;DHT22;12045;60.214;24.724;2022-12-10T10:43:33;1.00;99.90
23729;DHT22;12045;60.214;24.724;2022-12-10T10:46:22;1.10;99.90
23729;DHT22;12045;60.214;24.724;2022-12-10T10:48:50;1.60;99.90
23729;DHT22;12045;60.214;24.724;2022-12-10T10:51:22;1.20;99.90
23729;DHT22;12045;60.214;24.724;2022-12-10T10:53:53;2.90;99.90
23729;DHT22;12045;60.214;24.724;2022-12-10T10:56:29;3.10;99.90
23729;DHT22;12045;60.214;24.724;2022-12-10T10:59:06;1.60;99.90
23729;DHT22;12045;60.214;24.724;2022-12-10T11:01:49;1.30;99.90
23729;DHT22;12045;60.214;24.724;2022-12-10T11:04:24;0.90;99.90
23729;DHT22;12045;60.214;24.724;2022-12-10T11:06:55;0.70;99.90
23729;DHT22;12045;60.214;24.724;2022-12-10T11:09:30;2.90;99.90
23729;DHT22;12045;60.214;24.724;2022-12-10T11:12:04;0.60;99.90
23729;DHT22;12045;60.214;24.724;2022-12-10T11:14:40;3.40;99.90
23729;DHT22;12045;60.214;24.724;2022-12-10T11:22:23;3.10;99.90
23729;DHT22;12045;60.214;24.724;2022-12-10T11:24:51;2.40;99.90
23729;DHT22;12045;60.214;24.724;2022-12-10T11:30:26;1.20;99.90
23729;DHT22;12045;60.214;24.724;2022-12-10T11:33:27;2.20;99.90
23729;DHT22;12045;60.214;24.724;2022-12-10T11:36:06;0.90;99.90
23729;DHT22;12045;60.214;24.724;2022-12-10T11:49:47;0.50;99.90
23729;DHT22;12045;60.214;24.724;2022-12-10T12:03:44;0.50;99.90
23729;DHT22;12045;60.214;24.724;2022-12-10T12:09:11;0.10;99.90
23729;DHT22;12045;60.214;24.724;2022-12-10T12:12:50;0.30;99.90
23729;DHT22;12045;60.214;24.724;2022-12-10T12:17:38;0.20;99.90
23729;DHT22;12045;60.214;24.724;2022-12-10T12:22:58;0.50;99.90
23729;DHT22;12045;60.214;24.724;2022-12-10T12:25:30;0.20;99.90
23729;DHT22;12045;60.214;24.724;2022-12-10T12:28:01;1.80;99.90
23729;DHT22;12045;60.214;24.724;2022-12-10T12:30:33;0.50;99.90
23729;DHT22;12045;60.214;24.724;2022-12-10T12:35:53;0.40;99.90
23729;DHT22;12045;60.214;24.724;2022-12-10T12:38:30;0.40;99.90
23729;DHT22;12045;60.214;24.724;2022-12-10T12:41:10;0.40;99.90
23729;DHT22;12045;60.214;24.724;2022-12-10T12:44:00;0.20;99.90
23729;DHT22;12045;60.214;24.724;2022-12-10T12:46:42;0.20;99.90
23729;DHT22;12045;60.214;24.724;2022-12-10T12:49:27;0.00;99.90
23729;DHT22;12045;60.214;24.724;2022-12-10T12:52:13;0.20;99.90
23729;DHT22;12045;60.214;24.724;2022-12-10T12:54:43;0.40;99.90
23729;DHT22;12045;60.214;24.724;2022-12-10T12:57:35;0.30;99.90
23729;DHT22;12045;60.214;24.724;2022-12-10T13:00:12;0.10;99.90
23729;DHT22;12045;60.214;24.724;2022-12-10T13:02:47;0.40;99.90
23729;DHT22;12045;60.214;24.724;2022-12-10T13:10:52;0.20;99.90
23729;DHT22;12045;60.214;24.724;2022-12-10T13:15:55;0.00;99.90
23729;DHT22;12045;60.214;24.724;2022-12-10T13:18:43;1.70;99.90
23729;DHT22;12045;60.214;24.724;2022-12-10T13:23:52;0.10;99.90
23729;DHT22;12045;60.214;24.724;2022-12-10T13:26:27;-0.20;99.90
23729;DHT22;12045;60.214;24.724;2022-12-10T13:29:26;0.20;99.90
23729;DHT22;12045;60.214;24.724;2022-12-10T13:32:04;0.10;99.90
23729;DHT22;12045;60.214;24.724;2022-12-10T13:34:40;0.10;99.90
23729;DHT22;12045;60.214;24.724;2022-12-10T13:37:27;-0.10;99.90
23729;DHT22;12045;60.214;24.724;2022-12-10T13:42:38;0.20;99.90
23729;DHT22;12045;60.214;24.724;2022-12-10T13:45:29;-0.10;99.90
23729;DHT22;12045;60.214;24.724;2022-12-10T13:48:22;0.30;99.90
23729;DHT22;12045;60.214;24.724;2022-12-10T13:54:21;0.80;99.90
23729;DHT22;12045;60.214;24.724;2022-12-10T13:57:07;0.10;99.90
23729;DHT22;12045;60.214;24.724;2022-12-10T14:02:39;0.10;99.90
23729;DHT22;12045;60.214;24.724;2022-12-10T14:07:50;0.40;99.90
23729;DHT22;12045;60.214;24.724;2022-12-10T14:10:24;2.00;99.90
23729;DHT22;12045;60.214;24.724;2022-12-10T14:12:53;1.70;99.90
23729;DHT22;12045;60.214;24.724;2022-12-10T14:15:24;2.00;99.90
23729;DHT22;12045;60.214;24.724;2022-12-10T14:18:10;-0.10;99.90
23729;DHT22;12045;60.214;24.724;2022-12-10T14:20:43;0.10;99.90
23729;DHT22;12045;60.214;24.724;2022-12-10T14:26:18;-0.10;99.90
23729;DHT22;12045;60.214;24.724;2022-12-10T14:28:58;0.00;99.90
23729;DHT22;12045;60.214;24.724;2022-12-10T14:31:34;0.10;99.90
23729;DHT22;12045;60.214;24.724;2022-12-10T14:34:07;-0.20;99.90
23729;DHT22;12045;60.214;24.724;2022-12-10T14:36:43;-0.90;99.90
23729;DHT22;12045;60.214;24.724;2022-12-10T14:39:19;0.40;99.90
23729;DHT22;12045;60.214;24.724;2022-12-10T14:41:49;-0.30;99.90
23729;DHT22;12045;60.214;24.724;2022-12-10T14:44:18;-0.50;99.90
23729;DHT22;12045;60.214;24.724;2022-12-10T14:46:49;-0.10;99.90
23729;DHT22;12045;60.214;24.724;2022-12-10T14:49:26;-0.50;99.90
23729;DHT22;12045;60.214;24.724;2022-12-10T14:51:56;-0.10;99.90
23729;DHT22;12045;60.214;24.724;2022-12-10T14:54:33;1.10;99.90
23729;DHT22;12045;60.214;24.724;2022-12-10T14:57:07;-0.30;99.90
23729;DHT22;12045;60.214;24.724;2022-12-10T15:00:00;1.60;99.90
23729;DHT22;12045;60.214;24.724;2022-12-10T15:02:34;-0.40;99.90
23729;DHT22;12045;60.214;24.724;2022-12-10T15:05:03;-0.20;99.90
23729;DHT22;12045;60.214;24.724;2022-12-10T15:07:36;0.00;99.90
23729;DHT22;12045;60.214;24.724;2022-12-10T15:10:07;0.40;99.90
23729;DHT22;12045;60.214;24.724;2022-12-10T15:12:46;-0.40;99.90
23729;DHT22;12045;60.214;24.724;2022-12-10T15:20:48;-0.20;99.90
23729;DHT22;12045;60.214;24.724;2022-12-10T15:23:31;-0.50;99.90
23729;DHT22;12045;60.214;24.724;2022-12-10T15:28:46;-0.40;99.90
23729;DHT22;12045;60.214;24.724;2022-12-10T15:34:02;-1.30;99.90
23729;DHT22;12045;60.214;24.724;2022-12-10T15:36:41;0.40;99.90
23729;DHT22;12045;60.214;24.724;2022-12-10T15:39:24;1.10;99.90
23729;DHT22;12045;60.214;24.724;2022-12-10T15:45:03;-0.60;99.90
23729;DHT22;12045;60.214;24.724;2022-12-10T15:47:31;-0.70;99.90
23729;DHT22;12045;60.214;24.724;2022-12-10T15:50:00;-1.40;99.90
23729;DHT22;12045;60.214;24.724;2022-12-10T15:52:29;-0.90;99.90
23729;DHT22;12045;60.214;24.724;2022-12-10T15:54:57;2.40;99.90
23729;DHT22;12045;60.214;24.724;2022-12-10T15:57:34;-0.60;99.90
23729;DHT22;12045;60.214;24.724;2022-12-10T16:00:11;-0.80;99.90
23729;DHT22;12045;60.214;24.724;2022-12-10T16:05:20;-0.70;99.90
23729;DHT22;12045;60.214;24.724;2022-12-10T16:07:51;-0.40;99.90
23729;DHT22;12045;60.214;24.724;2022-12-10T16:10:22;-0.90;99.90
23729;DHT22;12045;60.214;24.724;2022-12-10T16:12:59;-0.70;99.90
23729;DHT22;12045;60.214;24.724;2022-12-10T16:15:30;-0.40;99.90
23729;DHT22;12045;60.214;24.724;2022-12-10T16:17:58;-0.50;99.90
23729;DHT22;12045;60.214;24.724;2022-12-10T16:20:28;-0.60;99.90
23729;DHT22;12045;60.214;24.724;2022-12-10T16:22:57;-1.10;99.90
23729;DHT22;12045;60.214;24.724;2022-12-10T16:25:27;-0.60;99.90
23729;DHT22;12045;60.214;24.724;2022-12-10T16:27:57;1.00;99.90
23729;DHT22;12045;60.214;24.724;2022-12-10T16:30:41;1.30;99.90
23729;DHT22;12045;60.214;24.724;2022-12-10T16:33:15;-0.70;99.90
23729;DHT22;12045;60.214;24.724;2022-12-10T16:35:43;-0.60;99.90
23729;DHT22;12045;60.214;24.724;2022-12-10T16:38:10;0.30;99.90
23729;DHT22;12045;60.214;24.724;2022-12-10T16:40:39;-0.40;99.90
23729;DHT22;12045;60.214;24.724;2022-12-10T16:43:22;-0.60;99.90
23729;DHT22;12045;60.214;24.724;2022-12-10T16:45:50;0.30;99.90
23729;DHT22;12045;60.214;24.724;2022-12-10T16:48:18;-0.60;99.90
23729;DHT22;12045;60.214;24.724;2022-12-10T16:50:47;-0.70;99.90
23729;DHT22;12045;60.214;24.724;2022-12-10T16:53:24;1.60;99.90
23729;DHT22;12045;60.214;24.724;2022-12-10T16:55:57;-0.50;99.90
23729;DHT22;12045;60.214;24.724;2022-12-10T16:58:24;-0.50;99.90
23729;DHT22;12045;60.214;24.724;2022-12-10T17:00:53;0.30;99.90
23729;DHT22;12045;60.214;24.724;2022-12-10T17:03:23;-0.80;99.90
23729;DHT22;12045;60.214;24.724;2022-12-10T17:06:00;1.00;99.90
23729;DHT22;12045;60.214;24.724;2022-12-10T17:08:28;-0.50;99.90
23729;DHT22;12045;60.214;24.724;2022-12-10T17:10:57;-0.50;99.90
23729;DHT22;12045;60.214;24.724;2022-12-10T17:13:44;0.30;99.90
23729;DHT22;12045;60.214;24.724;2022-12-10T17:16:15;0.20;99.90
23729;DHT22;12045;60.214;24.724;2022-12-10T17:18:44;1.90;99.90
23729;DHT22;12045;60.214;24.724;2022-12-10T17:21:11;-0.60;99.90
23729;DHT22;12045;60.214;24.724;2022-12-10T17:23:39;1.90;99.90
23729;DHT22;12045;60.214;24.724;2022-12-10T17:26:08;0.70;99.90
23729;DHT22;12045;60.214;24.724;2022-12-10T17:28:42;1.20;99.90
23729;DHT22;12045;60.214;24.724;2022-12-10T17:31:10;-0.60;99.90
23729;DHT22;12045;60.214;24.724;2022-12-10T17:33:37;-0.60;99.90
23729;DHT22;12045;60.214;24.724;2022-12-10T17:36:07;-0.50;99.90
23729;DHT22;12045;60.214;24.724;2022-12-10T17:38:35;-0.40;99.90
23729;DHT22;12045;60.214;24.724;2022-12-10T17:41:03;1.00;99.90
23729;DHT22;12045;60.214;24.724;2022-12-10T17:43:32;-0.40;99.90
23729;DHT22;12045;60.214;24.724;2022-12-10T17:46:01;-0.60;99.90
23729;DHT22;12045;60.214;24.724;2022-12-10T17:48:28;-0.30;99.90
23729;DHT22;12045;60.214;24.724;2022-12-10T17:50:55;1.20;99.90
23729;DHT22;12045;60.214;24.724;2022-12-10T17:53:23;-0.80;99.90
23729;DHT22;12045;60.214;24.724;2022-12-10T17:55:59;-0.70;99.90
23729;DHT22;12045;60.214;24.724;2022-12-10T17:58:27;-0.60;99.90
23729;DHT22;12045;60.214;24.724;2022-12-10T18:00:54;0.40;99.90
23729;DHT22;12045;60.214;24.724;2022-12-10T18:03:22;1.00;99.90
23729;DHT22;12045;60.214;24.724;2022-12-10T18:05:49;2.30;99.90
23729;DHT22;12045;60.214;24.724;2022-12-10T18:08:17;-0.80;99.90
23729;DHT22;12045;60.214;24.724;2022-12-10T18:10:50;-0.60;99.90
23729;DHT22;12045;60.214;24.724;2022-12-10T18:13:19;-0.60;99.90
23729;DHT22;12045;60.214;24.724;2022-12-10T18:15:49;-0.70;99.90
23729;DHT22;12045;60.214;24.724;2022-12-10T18:18:16;-0.10;99.90
23729;DHT22;12045;60.214;24.724;2022-12-10T18:20:44;-0.60;99.90
23729;DHT22;12045;60.214;24.724;2022-12-10T18:23:12;-0.60;99.90
23729;DHT22;12045;60.214;24.724;2022-12-10T18:25:42;-0.20;99.90
23729;DHT22;12045;60.214;24.724;2022-12-10T18:30:52;-0.60;99.90
23729;DHT22;12045;60.214;24.724;2022-12-10T18:33:28;0.20;99.90
23729;DHT22;12045;60.214;24.724;2022-12-10T18:36:03;0.70;99.90